createdAt,value
2018-09-19T00:02:09.029Z,99405.68
2018-09-19T00:04:39.118Z,99411.56
2018-09-19T00:07:11.952Z,99409.20
2018-09-19T00:09:42.459Z,99407.61
2018-09-19T00:12:13.860Z,99403.34
2018-09-19T00:14:45.388Z,99410.77
2018-09-19T00:17:16.034Z,99413.93
2018-09-19T00:19:46.311Z,99409.14
2018-09-19T00:22:17.591Z,99410.50
2018-09-19T00:24:47.832Z,99418.25
2018-09-19T00:27:19.804Z,99429.69
2018-09-19T00:29:50.181Z,99436.11
2018-09-19T00:32:20.298Z,99428.39
2018-09-19T00:34:50.280Z,99430.54
2018-09-19T00:37:20.864Z,99439.59
2018-09-19T00:39:50.780Z,99433.20
2018-09-19T00:42:22.316Z,99438.28
2018-09-19T00:44:53.249Z,99440.41
2018-09-19T00:47:23.325Z,99445.18
2018-09-19T00:49:54.129Z,99446.45
2018-09-19T00:52:24.543Z,99446.45
2018-09-19T00:54:55.490Z,99450.19
2018-09-19T00:57:26.400Z,99450.19
2018-09-19T00:59:56.719Z,99450.19
2018-09-19T01:02:27.561Z,99457.66
2018-09-19T01:04:58.067Z,99454.70
2018-09-19T01:07:28.569Z,99452.84
2018-09-19T01:09:59.113Z,99451.22
2018-09-19T01:12:28.965Z,99457.34
2018-09-19T01:14:59.478Z,99465.64
2018-09-19T01:17:31.338Z,99463.76
2018-09-19T01:20:01.308Z,99461.09
2018-09-19T01:22:31.564Z,99460.56
2018-09-19T01:25:01.490Z,99458.22
2018-09-19T01:27:31.457Z,99458.48
2018-09-19T01:30:02.078Z,99454.22
2018-09-19T01:32:32.744Z,99458.77
2018-09-19T01:35:06.717Z,99461.70
2018-09-19T01:37:37.259Z,99465.15
2018-09-19T01:40:07.838Z,99467.52
2018-09-19T01:42:38.398Z,99470.73
2018-09-19T01:45:08.620Z,99474.20
2018-09-19T01:47:38.921Z,99474.97
2018-09-19T01:50:09.518Z,99484.02
2018-09-19T01:52:40.280Z,99487.22
2018-09-19T01:55:10.632Z,99495.20
2018-09-19T01:57:40.815Z,99490.39
2018-09-19T02:00:11.125Z,99490.41
2018-09-19T02:02:41.138Z,99490.41
2018-09-19T02:05:11.091Z,99490.12
2018-09-19T02:07:42.760Z,99502.91
2018-09-19T02:10:14.749Z,99473.16
2018-09-19T02:12:44.867Z,99505.09
2018-09-19T02:15:15.542Z,99505.58
2018-09-19T02:17:45.539Z,99513.84
2018-09-19T02:20:16.020Z,99511.16
2018-09-19T02:22:46.212Z,99513.04
2018-09-19T02:25:16.287Z,99508.49
2018-09-19T02:27:46.874Z,99507.95
2018-09-19T02:30:17.463Z,99510.08
2018-09-19T02:32:47.870Z,99519.94
2018-09-19T02:35:17.703Z,99519.94
2018-09-19T02:37:48.067Z,99513.29
2018-09-19T02:40:18.321Z,99516.48
2018-09-19T02:42:48.553Z,99517.02
2018-09-19T02:45:19.172Z,99519.41
2018-09-19T02:47:49.361Z,99515.39
2018-09-19T02:50:19.873Z,99522.05
2018-09-19T02:52:57.077Z,99523.89
2018-09-19T02:55:27.620Z,99524.96
2018-09-19T02:57:57.860Z,99522.06
2018-09-19T03:00:27.816Z,99524.19
2018-09-19T03:02:57.850Z,99528.95
2018-09-19T03:05:28.014Z,99522.06
2018-09-19T03:07:58.296Z,99527.39
2018-09-19T03:10:28.889Z,99531.38
2018-09-19T03:12:59.757Z,99530.31
2018-09-19T03:15:30.368Z,99529.50
2018-09-19T03:18:01.013Z,99523.42
2018-09-19T03:20:32.803Z,99525.54
2018-09-19T03:23:04.100Z,99523.91
2018-09-19T03:25:34.315Z,99530.82
2018-09-19T03:28:05.666Z,99524.16
2018-09-19T03:30:37.129Z,99535.87
2018-09-19T03:33:07.060Z,99538.27
2018-09-19T03:35:37.662Z,99545.15
2018-09-19T03:38:07.985Z,99544.36
2018-09-19T03:40:38.537Z,99544.62
2018-09-19T03:43:09.245Z,99547.28
2018-09-19T03:45:39.530Z,99552.39
2018-09-19T03:48:10.232Z,99549.45
2018-09-19T03:50:40.838Z,99543.83
2018-09-19T03:53:10.852Z,99549.43
2018-09-19T03:55:41.066Z,99555.30
2018-09-19T03:58:11.488Z,99549.45
2018-09-19T04:00:41.581Z,99553.46
2018-09-19T04:03:11.835Z,99556.68
2018-09-19T04:05:41.887Z,99558.02
2018-09-19T04:08:12.237Z,99558.27
2018-09-19T04:10:42.100Z,99563.86
2018-09-19T04:13:12.185Z,99571.05
2018-09-19T04:15:42.363Z,99568.41
2018-09-19T04:18:12.865Z,99571.85
2018-09-19T04:20:43.137Z,99575.32
2018-09-19T04:23:13.220Z,99575.80
2018-09-19T04:25:43.722Z,99584.63
2018-09-19T04:28:13.887Z,99574.79
2018-09-19T04:30:44.438Z,99576.63
2018-09-19T04:33:15.581Z,99580.89
2018-09-19T04:35:45.562Z,99580.11
2018-09-19T04:38:16.286Z,99586.98
2018-09-19T04:40:46.886Z,99589.39
2018-09-19T04:43:16.820Z,99593.91
2018-09-19T04:45:47.273Z,99596.03
2018-09-19T04:48:17.979Z,99599.21
2018-09-19T04:50:48.063Z,99599.47
2018-09-19T04:53:18.973Z,99597.86
2018-09-19T04:55:48.741Z,99605.30
2018-09-19T04:58:18.973Z,99613.28
2018-09-19T05:00:49.345Z,99624.94
2018-09-19T05:03:19.357Z,99607.41
2018-09-19T05:05:49.550Z,99615.62
2018-09-19T05:08:19.938Z,99615.56
2018-09-19T05:10:50.518Z,99617.86
2018-09-19T05:13:23.002Z,99622.07
2018-09-19T05:15:52.924Z,99622.61
2018-09-19T05:18:23.253Z,99630.26
2018-09-19T05:20:54.039Z,99632.92
2018-09-19T05:23:24.332Z,99639.30
2018-09-19T05:25:56.282Z,99639.83
2018-09-19T05:28:26.635Z,99642.20
2018-09-19T05:30:56.772Z,99639.30
2018-09-19T05:33:27.459Z,99647.79
2018-09-19T05:35:58.025Z,99647.74
2018-09-19T05:38:28.411Z,99656.45
2018-09-19T05:40:58.753Z,99655.59
2018-09-19T05:43:29.680Z,99660.96
2018-09-19T05:45:59.877Z,99663.09
2018-09-19T05:48:30.914Z,99669.72
2018-09-19T05:51:03.857Z,99679.75
2018-09-19T05:53:34.408Z,99682.66
2018-09-19T05:56:04.750Z,99683.42
2018-09-19T05:58:34.955Z,99689.26
2018-09-19T06:01:04.916Z,99685.55
2018-09-19T06:03:35.432Z,99687.75
2018-09-19T06:06:07.198Z,99694.44
2018-09-19T06:08:37.809Z,99698.45
2018-09-19T06:11:09.824Z,99696.07
2018-09-19T06:13:41.942Z,99694.66
2018-09-19T06:16:12.900Z,99672.81
2018-09-19T06:18:44.369Z,99702.16
2018-09-19T06:21:16.162Z,99703.70
2018-09-19T06:23:48.922Z,99706.10
2018-09-19T06:26:18.760Z,99707.21
2018-09-19T06:28:49.262Z,99705.67
2018-09-19T06:31:19.380Z,99706.23
2018-09-19T06:33:49.398Z,99707.09
2018-09-19T06:36:19.903Z,99703.20
2018-09-19T06:38:49.958Z,99707.50
2018-09-19T06:41:19.969Z,99708.89
2018-09-19T06:43:50.175Z,99709.47
2018-09-19T06:46:19.942Z,99720.95
2018-09-19T06:48:50.595Z,99721.22
2018-09-19T06:51:21.050Z,99724.45
2018-09-19T06:53:51.502Z,99735.86
2018-09-19T06:56:21.618Z,99723.95
2018-09-19T06:58:51.836Z,99729.34
2018-09-19T07:01:21.845Z,99736.76
2018-09-19T07:03:52.494Z,99725.86
2018-09-19T07:06:23.332Z,99730.42
2018-09-19T07:08:53.602Z,99732.00
2018-09-19T07:11:24.236Z,99724.53
2018-09-19T07:13:54.406Z,99726.89
2018-09-19T07:16:24.883Z,99726.37
2018-09-19T07:18:55.237Z,99720.45
2018-09-19T07:21:26.122Z,99715.05
2018-09-19T07:23:56.079Z,99706.67
2018-09-19T07:26:28.671Z,99715.38
2018-09-19T07:28:59.983Z,99707.02
2018-09-19T07:31:33.185Z,99693.33
2018-09-19T07:34:05.479Z,99710.23
2018-09-19T07:36:37.802Z,99710.76
2018-09-19T07:39:10.982Z,99711.50
2018-09-19T07:41:41.004Z,99709.73
2018-09-19T07:44:20.888Z,99708.05
2018-09-19T07:46:51.397Z,99709.55
2018-09-19T07:49:28.925Z,99714.98
2018-09-19T07:51:59.519Z,99716.47
2018-09-19T07:54:30.545Z,99713.02
2018-09-19T07:57:04.122Z,99717.02
2018-09-19T07:59:39.088Z,99717.62
2018-09-19T08:02:10.390Z,99714.02
2018-09-19T08:04:42.950Z,99719.41
2018-09-19T08:07:15.582Z,99728.08
2018-09-19T08:09:48.080Z,99725.66
2018-09-19T08:12:20.500Z,99700.40
2018-09-19T08:14:50.574Z,99722.41
2018-09-19T08:17:20.706Z,99725.09
2018-09-19T08:19:54.556Z,99699.45
2018-09-19T08:22:26.276Z,99720.89
2018-09-19T08:24:56.485Z,99714.97
2018-09-19T08:27:27.344Z,99712.54
2018-09-19T08:30:02.120Z,99701.23
2018-09-19T08:32:34.631Z,99707.88
2018-09-19T08:35:05.810Z,99706.98
2018-09-19T08:38:06.569Z,99700.28
2018-09-19T08:40:36.797Z,99692.92
2018-09-19T08:43:06.835Z,99698.79
2018-09-19T08:45:36.724Z,99698.02
2018-09-19T08:48:06.882Z,99688.89
2018-09-19T08:50:38.543Z,99687.11
2018-09-19T08:53:08.584Z,99680.00
2018-09-19T08:55:40.625Z,99689.05
2018-09-19T08:58:15.469Z,99679.70
2018-09-19T09:00:46.543Z,99689.11
2018-09-19T09:03:19.020Z,99683.61
2018-09-19T09:05:51.178Z,99679.53
2018-09-19T09:08:22.179Z,99679.31
2018-09-19T09:11:00.631Z,99653.25
2018-09-19T09:13:37.131Z,99683.09
2018-09-19T09:16:07.148Z,99678.09
2018-09-19T09:18:44.634Z,99681.44
2018-09-19T09:21:26.762Z,99680.97
2018-09-19T09:24:14.890Z,99674.05
2018-09-19T09:26:50.595Z,99670.96
2018-09-19T09:29:21.884Z,99673.59
2018-09-19T09:31:52.043Z,99669.22
2018-09-19T09:34:22.520Z,99670.56
2018-09-19T09:36:54.422Z,99670.02
2018-09-19T09:39:26.694Z,99665.28
2018-09-19T09:41:57.443Z,99653.51
2018-09-19T09:44:28.426Z,99664.66
2018-09-19T09:47:03.835Z,99655.58
2018-09-19T09:49:36.751Z,99652.67
2018-09-19T09:52:10.818Z,99648.33
2018-09-19T09:54:43.002Z,99644.92
2018-09-19T09:57:17.701Z,99639.55
2018-09-19T10:00:05.097Z,99615.38
2018-09-19T10:02:48.268Z,99633.11
2018-09-19T10:05:22.026Z,99625.67
2018-09-19T10:07:54.544Z,99600.16
2018-09-19T10:10:25.834Z,99617.55
2018-09-19T10:12:57.250Z,99622.07
2018-09-19T10:15:28.880Z,99616.08
2018-09-19T10:18:02.794Z,99620.16
2018-09-19T10:20:36.306Z,99622.70
2018-09-19T10:23:10.025Z,99606.18
2018-09-19T10:25:47.629Z,99616.73
2018-09-19T10:28:21.248Z,99611.14
2018-09-19T10:30:51.908Z,99607.47
2018-09-19T10:33:22.857Z,99609.31
2018-09-19T10:35:55.892Z,99618.36
2018-09-19T10:38:30.603Z,99609.00
2018-09-19T10:41:10.768Z,99613.26
2018-09-19T10:43:44.873Z,99592.11
2018-09-19T10:46:15.760Z,99618.34
2018-09-19T10:48:49.567Z,99617.70
2018-09-19T10:51:22.129Z,99617.59
2018-09-19T10:53:56.854Z,99590.80
2018-09-19T10:56:30.099Z,99615.08
2018-09-19T10:59:04.117Z,99617.77
2018-09-19T11:01:39.823Z,99610.03
2018-09-19T11:04:11.734Z,99606.57
2018-09-19T11:06:44.711Z,99625.40
2018-09-19T11:09:20.324Z,99613.60
2018-09-19T11:11:54.489Z,99620.27
2018-09-19T11:14:26.739Z,99604.78
2018-09-19T11:17:00.071Z,99612.06
2018-09-19T11:19:34.659Z,99610.27
2018-09-19T11:22:06.799Z,99611.23
2018-09-19T11:24:42.876Z,99613.97
2018-09-19T11:27:19.079Z,99619.13
2018-09-19T11:29:55.048Z,99593.42
2018-09-19T11:32:30.612Z,99613.93
2018-09-19T11:35:02.676Z,99612.89
2018-09-19T11:37:37.001Z,99613.86
2018-09-19T11:40:10.505Z,99607.67
2018-09-19T11:42:46.054Z,99616.25
2018-09-19T11:45:27.340Z,99613.37
2018-09-19T11:48:00.152Z,99616.75
2018-09-19T11:50:33.669Z,99607.72
2018-09-19T11:53:05.608Z,99618.08
2018-09-19T11:55:35.516Z,99611.22
2018-09-19T11:58:05.663Z,99611.09
2018-09-19T12:00:36.301Z,99604.13
2018-09-19T12:03:11.000Z,99612.84
2018-09-19T12:05:44.372Z,99615.44
2018-09-19T12:08:17.234Z,99615.68
2018-09-19T12:10:50.261Z,99596.39
2018-09-19T12:13:22.247Z,99601.70
2018-09-19T12:15:54.626Z,99597.30
2018-09-19T12:18:25.615Z,99583.48
2018-09-19T12:20:58.240Z,99584.45
2018-09-19T12:23:29.616Z,99581.91
2018-09-19T12:26:00.032Z,99576.51
2018-09-19T12:28:29.992Z,99572.55
2018-09-19T12:30:59.914Z,99569.97
2018-09-19T12:33:30.550Z,99572.45
2018-09-19T12:36:00.703Z,99565.22
2018-09-19T12:38:31.142Z,99569.38
2018-09-19T12:41:01.331Z,99564.21
2018-09-19T12:43:31.339Z,99563.81
2018-09-19T12:46:02.077Z,99551.73
2018-09-19T12:48:35.108Z,99563.89
2018-09-19T12:51:07.363Z,99557.94
2018-09-19T12:53:42.287Z,99549.49
2018-09-19T12:56:13.696Z,99535.83
2018-09-19T12:58:44.365Z,99542.73
2018-09-19T13:01:17.193Z,99547.45
2018-09-19T13:03:49.395Z,99547.12
2018-09-19T13:06:20.884Z,99533.27
2018-09-19T13:08:51.965Z,99546.55
2018-09-19T13:11:24.648Z,99544.47
2018-09-19T13:13:56.076Z,99542.04
2018-09-19T13:16:27.192Z,99548.46
2018-09-19T13:18:58.683Z,99541.23
2018-09-19T13:21:29.131Z,99543.84
2018-09-19T13:24:02.852Z,99528.01
2018-09-19T13:26:34.624Z,99543.58
2018-09-19T13:29:05.662Z,99540.64
2018-09-19T13:31:36.921Z,99547.65
2018-09-19T13:34:07.556Z,99546.53
2018-09-19T13:36:41.783Z,99542.66
2018-09-19T13:39:13.851Z,99530.12
2018-09-19T13:41:43.799Z,99529.13
2018-09-19T13:44:14.615Z,99535.05
2018-09-19T13:46:45.284Z,99521.00
2018-09-19T13:49:50.788Z,99535.87
2018-09-19T13:52:23.431Z,99529.84
2018-09-19T13:54:53.945Z,99515.23
2018-09-19T13:57:23.887Z,99527.03
2018-09-19T13:59:56.717Z,99519.22
2018-09-19T14:02:33.848Z,99515.24
2018-09-19T14:05:06.301Z,99516.71
2018-09-19T14:07:40.476Z,99524.67
2018-09-19T14:10:18.829Z,99527.03
2018-09-19T14:12:51.367Z,99508.69
2018-09-19T14:15:28.451Z,99521.19
2018-09-19T14:18:00.447Z,99512.77
2018-09-19T14:20:35.065Z,99517.62
2018-09-19T14:23:07.696Z,99522.81
2018-09-19T14:25:42.196Z,99514.91
2018-09-19T14:28:15.703Z,99508.13
2018-09-19T14:30:46.130Z,99513.09
2018-09-19T14:33:16.529Z,99505.84
2018-09-19T14:35:47.339Z,99509.52
2018-09-19T14:38:19.168Z,99507.78
2018-09-19T14:40:50.211Z,99506.27
2018-09-19T14:43:20.728Z,99531.80
2018-09-19T14:45:51.067Z,99510.87
2018-09-19T14:48:23.190Z,99507.82
2018-09-19T14:50:54.161Z,99510.30
2018-09-19T14:53:30.267Z,99507.69
2018-09-19T14:56:03.940Z,99501.48
2018-09-19T14:58:35.761Z,99515.64
2018-09-19T15:01:09.903Z,99514.56
2018-09-19T15:03:41.898Z,99513.13
2018-09-19T15:06:13.129Z,99514.95
2018-09-19T15:08:45.841Z,99510.19
2018-09-19T15:11:16.507Z,99514.53
2018-09-19T15:13:47.287Z,99502.73
2018-09-19T15:16:20.936Z,99498.94
2018-09-19T15:18:54.625Z,99500.05
2018-09-19T15:21:31.195Z,99498.44
2018-09-19T15:24:07.208Z,99504.02
2018-09-19T15:26:44.771Z,99505.69
2018-09-19T15:29:18.607Z,99501.86
2018-09-19T15:31:51.218Z,99502.56
2018-09-19T15:34:24.430Z,99478.81
2018-09-19T15:36:58.674Z,99497.50
2018-09-19T15:39:31.011Z,99497.30
2018-09-19T15:42:05.164Z,99501.70
2018-09-19T15:44:43.069Z,99497.73
2018-09-19T15:47:15.758Z,99493.13
2018-09-19T15:49:46.715Z,99496.97
2018-09-19T15:52:23.675Z,99500.27
2018-09-19T15:54:55.044Z,99503.04
2018-09-19T15:57:26.023Z,99497.08
2018-09-19T15:59:58.212Z,99500.89
2018-09-19T16:02:29.171Z,99494.91
2018-09-19T16:05:01.349Z,99500.45
2018-09-19T16:07:34.123Z,99506.13
2018-09-19T16:10:10.872Z,99486.75
2018-09-19T16:12:42.785Z,99504.36
2018-09-19T16:15:14.525Z,99505.38
2018-09-19T16:17:45.346Z,99509.07
2018-09-19T16:20:18.598Z,99505.13
2018-09-19T16:22:50.157Z,99504.89
2018-09-19T16:25:23.473Z,99514.47
2018-09-19T16:28:01.182Z,99514.75
2018-09-19T16:30:31.449Z,99516.75
2018-09-19T16:33:01.614Z,99519.56
2018-09-19T16:35:33.565Z,99516.36
2018-09-19T16:38:06.739Z,99517.29
2018-09-19T16:40:42.269Z,99520.86
2018-09-19T16:43:15.654Z,99525.62
2018-09-19T16:45:53.997Z,99523.12
2018-09-19T16:48:25.623Z,99524.58
2018-09-19T16:51:05.863Z,99523.38
2018-09-19T16:53:37.038Z,99524.44
2018-09-19T16:56:12.527Z,99522.22
2018-09-19T16:58:44.475Z,99519.31
2018-09-19T17:01:19.187Z,99516.36
2018-09-19T17:03:50.194Z,99519.16
2018-09-19T17:06:21.402Z,99519.68
2018-09-19T17:08:53.369Z,99520.38
2018-09-19T17:11:23.741Z,99518.63
2018-09-19T17:13:57.346Z,99522.96
2018-09-19T17:16:31.411Z,99525.58
2018-09-19T17:19:06.784Z,99522.69
2018-09-19T17:21:42.813Z,99526.00
2018-09-19T17:24:15.095Z,99493.33
2018-09-19T17:26:46.407Z,99527.77
2018-09-19T17:29:21.989Z,99524.52
2018-09-19T17:31:54.116Z,99524.65
2018-09-19T17:34:25.252Z,99529.95
2018-09-19T17:36:56.049Z,99525.30
2018-09-19T17:39:29.150Z,99528.77
2018-09-19T17:42:00.519Z,99530.76
2018-09-19T17:44:30.926Z,99531.36
2018-09-19T17:47:02.347Z,99532.55
2018-09-19T17:49:34.348Z,99533.67
2018-09-19T17:52:05.350Z,99536.64
2018-09-19T17:54:41.299Z,99536.17
2018-09-19T17:57:13.331Z,99541.20
2018-09-19T17:59:44.437Z,99538.97
2018-09-19T18:02:15.491Z,99539.39
2018-09-19T18:04:46.524Z,99537.45
2018-09-19T18:07:17.954Z,99538.09
2018-09-19T18:09:48.427Z,99539.73
2018-09-19T18:12:18.491Z,99541.69
2018-09-19T18:14:50.192Z,99546.65
2018-09-19T18:17:21.038Z,99546.53
2018-09-19T18:19:50.924Z,99549.09
2018-09-19T18:22:21.794Z,99545.55
2018-09-19T18:24:52.254Z,99548.73
2018-09-19T18:27:23.074Z,99548.66
2018-09-19T18:29:53.026Z,99549.28
2018-09-19T18:32:23.106Z,99554.36
2018-09-19T18:34:53.381Z,99562.81
2018-09-19T18:37:24.182Z,99534.13
2018-09-19T18:39:54.319Z,99567.05
2018-09-19T18:42:25.075Z,99568.11
2018-09-19T18:44:56.510Z,99573.26
2018-09-19T18:47:28.170Z,99573.77
2018-09-19T18:49:59.202Z,99579.84
2018-09-19T18:52:29.901Z,99574.73
2018-09-19T18:55:02.975Z,99582.04
2018-09-19T18:57:35.988Z,99571.17
2018-09-19T19:00:11.553Z,99578.09
2018-09-19T19:02:51.283Z,99582.50
2018-09-19T19:05:23.078Z,99589.03
2018-09-19T19:08:03.668Z,99587.72
2018-09-19T19:10:34.252Z,99595.81
2018-09-19T19:13:07.105Z,99590.49
2018-09-19T19:15:37.998Z,99587.63
2018-09-19T19:18:12.732Z,99594.34
2018-09-19T19:20:44.778Z,99593.83
2018-09-19T19:23:17.085Z,99592.87
2018-09-19T19:25:50.156Z,99594.20
2018-09-19T19:28:23.236Z,99593.95
2018-09-19T19:30:55.186Z,99599.33
2018-09-19T19:33:28.530Z,99601.02
2018-09-19T19:36:01.785Z,99599.05
2018-09-19T19:38:32.132Z,99599.73
2018-09-19T19:41:07.515Z,99597.56
2018-09-19T19:45:03.761Z,99605.62
2018-09-19T19:47:35.452Z,99603.69
2018-09-19T19:50:07.736Z,99601.50
2018-09-19T19:52:38.691Z,99604.23
2018-09-19T19:55:09.006Z,99599.50
2018-09-19T19:57:39.402Z,99599.10
2018-09-19T20:00:11.285Z,99601.32
2018-09-19T20:02:42.103Z,99605.21
2018-09-19T20:05:12.450Z,99605.52
2018-09-19T20:07:42.508Z,99574.30
2018-09-19T20:10:15.561Z,99579.53
2018-09-19T20:12:46.067Z,99603.64
2018-09-19T20:15:17.135Z,99603.36
2018-09-19T20:17:47.807Z,99603.98
2018-09-19T20:20:18.708Z,99607.38
2018-09-19T20:22:50.346Z,99607.45
2018-09-19T20:25:20.850Z,99605.39
2018-09-19T20:27:51.506Z,99608.27
2018-09-19T20:30:21.532Z,99611.84
2018-09-19T20:32:54.340Z,99612.70
2018-09-19T20:35:24.941Z,99602.61
2018-09-19T20:37:55.474Z,99610.09
2018-09-19T20:40:25.560Z,99570.98
2018-09-19T20:42:58.652Z,99607.27
2018-09-19T20:45:28.886Z,99608.97
2018-09-19T20:47:59.590Z,99609.80
2018-09-19T20:50:31.370Z,99612.53
2018-09-19T20:53:03.716Z,99609.69
2018-09-19T20:55:35.013Z,99612.53
2018-09-19T20:58:05.138Z,99611.21
2018-09-19T21:00:35.643Z,99619.84
2018-09-19T21:03:06.902Z,99613.16
2018-09-19T21:05:36.918Z,99613.76
2018-09-19T21:08:06.773Z,99618.09
2018-09-19T21:10:36.746Z,99622.20
2018-09-19T21:13:07.386Z,99621.45
2018-09-19T21:15:37.574Z,99622.05
2018-09-19T21:18:08.017Z,99620.23
2018-09-19T21:20:37.818Z,99619.50
2018-09-19T21:23:07.880Z,99614.78
2018-09-19T21:25:37.833Z,99622.11
2018-09-19T21:28:08.066Z,99624.52
2018-09-19T21:30:38.140Z,99625.86
2018-09-19T21:33:08.505Z,99625.91
2018-09-19T21:35:38.318Z,99625.34
2018-09-19T21:38:08.614Z,99598.33
2018-09-19T21:40:38.720Z,99629.17
2018-09-19T21:43:09.245Z,99634.56
2018-09-19T21:45:40.028Z,99634.08
2018-09-19T21:48:10.338Z,99637.02
2018-09-19T21:50:40.294Z,99634.08
2018-09-19T21:53:10.697Z,99634.44
2018-09-19T21:55:41.742Z,99630.18
2018-09-19T21:58:12.479Z,99636.09
2018-09-19T22:00:50.212Z,99609.60
2018-09-19T22:03:21.474Z,99635.87
2018-09-19T22:05:52.113Z,99606.41
2018-09-19T22:08:22.768Z,99632.76
2018-09-19T22:10:52.991Z,99617.60
2018-09-19T22:13:24.058Z,99633.33
2018-09-19T22:15:54.062Z,99631.74
2018-09-19T22:18:24.806Z,99633.08
2018-09-19T22:20:56.025Z,99627.78
2018-09-19T22:23:26.357Z,99634.45
2018-09-19T22:25:57.023Z,99632.31
2018-09-19T22:28:27.079Z,99631.20
2018-09-19T22:30:58.006Z,99633.64
2018-09-19T22:33:29.315Z,99632.81
2018-09-19T22:35:59.851Z,99635.75
2018-09-19T22:38:33.270Z,99633.08
2018-09-19T22:41:03.466Z,99627.02
2018-09-19T22:43:33.273Z,99624.31
2018-09-19T22:46:04.347Z,99620.31
2018-09-19T22:48:34.605Z,99627.28
2018-09-19T22:51:04.528Z,99622.75
2018-09-19T22:53:35.891Z,99621.95
2018-09-19T22:56:06.411Z,99623.28
2018-09-19T22:58:36.771Z,99621.69
2018-09-19T23:01:07.354Z,99626.75
2018-09-19T23:03:37.876Z,99636.62
2018-09-19T23:06:07.821Z,99633.38
2018-09-19T23:08:40.413Z,99637.38
2018-09-19T23:11:10.918Z,99637.42
2018-09-19T23:13:40.885Z,99641.11
2018-09-19T23:16:11.015Z,99639.47
2018-09-19T23:18:40.981Z,99647.20
2018-09-19T23:21:11.268Z,99648.27
2018-09-19T23:23:41.463Z,99650.67
2018-09-19T23:26:11.308Z,99645.30
2018-09-19T23:28:41.539Z,99649.06
2018-09-19T23:31:12.764Z,99647.96
2018-09-19T23:33:42.699Z,99644.53
2018-09-19T23:36:12.856Z,99644.80
2018-09-19T23:38:43.421Z,99644.00
2018-09-19T23:41:14.308Z,99649.91
2018-09-19T23:43:44.229Z,99648.80
2018-09-19T23:46:15.853Z,99641.34
2018-09-19T23:48:46.321Z,99646.67
2018-09-19T23:51:16.992Z,99650.41
2018-09-19T23:53:48.479Z,99649.64
2018-09-19T23:56:20.856Z,99646.94
2018-09-19T23:58:51.141Z,99655.52
